Kezdőlap
METAR-TAF:

METAR-TAF

Repülőterek :

Tulcsa, Románia

földrajzi szélesség: 45-11N, földrajzi hosszúság: 028-49E, magasság: 4 m

Jelenlegi meteorológiai megfigyelések

A jelentés 31 perccel ezelõtt készült, 03:00 UTC
Északnyugati szél 8 kt
Hőmérséklet 1°C
Páratartalom 86%
Légköri nyomás 1014 hPa
Látótávolság 10 km, vagy több

METAR: LRTC 120300Z AUTO 32008KT 9999 SCT070/// BKN095/// OVC120/// 01/M01 Q1014

Idő: 05:31 (03:31 UTC)

Előrejelzés

A jelentés 13 órával és 31 perccel ezelõtt készült, 14:00 UTC
Az előrejelzés 11-én 15 óra UTC és 11-én 24 óra UTC között érvényes
Észak-északnyugati szél 12 kt
Látótávolság 10 km, vagy több
Kevés felhő 1500 lábon
11-én 17 óra UTC és 11-én 19 óra UTC között fokozatosan kialakuló
Látótávolság: 5000 m
Szakadozott felhőzet 1000 lábon
Párásság

TAF: LRTC 111400Z 1115/1124 34012KT 9999 FEW015 BECMG 1117/1119 5000 BR BKN010

Meteorológiai megfigyelések és előrejelzések több, mint 4000 repülőtéren (METAR és TAF jelentéseket).

A térképen piros és sárga pontok jelzik az elérhető meteorológiai állomásokat.

Mozgassa az egeret a pont fölött, hogy megjelenjen az állomás neve.

Azután kattintson az időjárási megfigyelések és előrejelzések megtekintéséhez.

A térkép megváltoztatása: kattintson a fekete keresztel jelölt zöld gombra ráközelítéshez, a vonallal jelölt zöld gombra távolításhoz, vagy a zöld nyilakra a szomszédos térképek eléréséhez.


METAR-TAF: